createdAt,value
2019-01-14T00:00:30.637Z,6.73
2019-01-14T00:01:30.636Z,6.67
2019-01-14T00:02:30.649Z,6.64
2019-01-14T00:03:30.656Z,6.69
2019-01-14T00:04:30.613Z,6.61
2019-01-14T00:05:30.579Z,6.59
2019-01-14T00:06:30.574Z,6.67
2019-01-14T00:07:30.559Z,6.64
2019-01-14T00:08:30.669Z,6.59
2019-01-14T00:09:31.058Z,6.59
2019-01-14T00:10:30.538Z,6.59
2019-01-14T00:11:30.531Z,6.62
2019-01-14T00:12:30.509Z,6.66
2019-01-14T00:13:30.543Z,6.58
2019-01-14T00:14:30.508Z,6.62
2019-01-14T00:15:30.542Z,6.67
2019-01-14T00:16:30.473Z,6.61
2019-01-14T00:17:30.490Z,6.61
2019-01-14T00:18:30.458Z,6.62
2019-01-14T00:19:30.484Z,6.69
2019-01-14T00:20:30.540Z,6.70
2019-01-14T00:21:30.416Z,6.80
2019-01-14T00:22:30.409Z,6.80
2019-01-14T00:23:30.427Z,6.73
2019-01-14T00:24:30.399Z,6.79
2019-01-14T00:25:30.359Z,6.80
2019-01-14T00:26:30.374Z,6.81
2019-01-14T00:27:30.367Z,6.77
2019-01-14T00:28:30.346Z,6.85
2019-01-14T00:29:30.340Z,6.87
2019-01-14T00:30:30.341Z,6.89
2019-01-14T00:31:30.324Z,6.91
2019-01-14T00:32:30.291Z,6.92
2019-01-14T00:33:30.297Z,6.94
2019-01-14T00:34:30.281Z,6.89
2019-01-14T00:35:30.291Z,6.71
2019-01-14T00:36:30.344Z,6.87
2019-01-14T00:37:30.240Z,6.88
2019-01-14T00:38:31.764Z,6.88
2019-01-14T00:39:30.314Z,6.89
2019-01-14T00:40:30.219Z,6.89
2019-01-14T00:41:30.205Z,6.89
2019-01-14T00:42:30.208Z,6.89
2019-01-14T00:43:30.173Z,6.89
2019-01-14T00:44:30.161Z,6.98
2019-01-14T00:45:30.141Z,6.87
2019-01-14T00:46:30.160Z,6.88
2019-01-14T00:47:30.153Z,6.87
2019-01-14T00:48:30.110Z,6.89
2019-01-14T00:49:30.135Z,6.94
2019-01-14T00:50:30.161Z,6.94
2019-01-14T00:51:30.083Z,6.80
2019-01-14T00:52:30.103Z,6.95
2019-01-14T00:53:30.089Z,6.89
2019-01-14T00:54:30.101Z,6.85
2019-01-14T00:55:30.052Z,6.89
2019-01-14T00:56:30.033Z,6.94
2019-01-14T00:57:30.016Z,6.98
2019-01-14T00:58:30.040Z,6.81
2019-01-14T00:59:30.013Z,7.06
2019-01-14T01:00:30.102Z,6.89
2019-01-14T01:01:29.980Z,6.92
2019-01-14T01:02:30.003Z,6.80
2019-01-14T01:03:29.969Z,6.91
2019-01-14T01:04:30.003Z,6.98
2019-01-14T01:05:29.958Z,6.94
2019-01-14T01:06:29.927Z,6.97
2019-01-14T01:07:29.924Z,6.95
2019-01-14T01:08:29.942Z,6.98
2019-01-14T01:09:29.887Z,6.99
2019-01-14T01:10:29.897Z,6.89
2019-01-14T01:11:29.866Z,6.98
2019-01-14T01:12:29.878Z,6.92
2019-01-14T01:13:29.859Z,6.94
2019-01-14T01:14:29.859Z,6.94
2019-01-14T01:15:29.845Z,6.95
2019-01-14T01:16:29.824Z,7.03
2019-01-14T01:17:29.806Z,6.97
2019-01-14T01:18:30.144Z,6.92
2019-01-14T01:19:29.793Z,6.89
2019-01-14T01:20:29.782Z,6.99
2019-01-14T01:21:29.783Z,6.99
2019-01-14T01:22:29.811Z,7.09
2019-01-14T01:23:29.743Z,6.94
2019-01-14T01:24:29.746Z,7.02
2019-01-14T01:25:29.727Z,6.94
2019-01-14T01:26:29.742Z,6.92
2019-01-14T01:27:29.689Z,6.88
2019-01-14T01:28:29.788Z,6.98
2019-01-14T01:29:29.677Z,6.89
2019-01-14T01:30:29.665Z,6.92
2019-01-14T01:31:29.662Z,6.80
2019-01-14T01:32:29.778Z,6.85
2019-01-14T01:33:29.649Z,6.95
2019-01-14T01:34:29.608Z,6.89
2019-01-14T01:35:29.623Z,6.87
2019-01-14T01:36:31.987Z,6.71
2019-01-14T01:37:29.602Z,6.56
2019-01-14T01:38:29.614Z,6.22
2019-01-14T01:39:29.612Z,6.19
2019-01-14T01:40:29.550Z,6.12
2019-01-14T01:41:29.532Z,6.12
2019-01-14T01:42:29.575Z,6.22
2019-01-14T01:43:29.517Z,6.27
2019-01-14T01:44:29.527Z,6.30
2019-01-14T01:45:29.524Z,6.28
2019-01-14T01:46:29.509Z,6.38
2019-01-14T01:47:29.476Z,6.34
2019-01-14T01:48:29.535Z,6.40
2019-01-14T01:49:29.475Z,6.40
2019-01-14T01:50:29.459Z,6.52
2019-01-14T01:51:29.450Z,6.48
2019-01-14T01:52:29.822Z,6.56
2019-01-14T01:53:29.424Z,6.49
2019-01-14T01:54:29.423Z,6.44
2019-01-14T01:55:29.449Z,6.56
2019-01-14T01:56:29.402Z,6.43
2019-01-14T01:57:31.124Z,6.49
2019-01-14T01:58:29.386Z,6.40
2019-01-14T01:59:29.372Z,6.44
2019-01-14T02:00:29.343Z,6.41
2019-01-14T02:01:29.316Z,6.37
2019-01-14T02:02:29.406Z,6.34
2019-01-14T02:03:29.317Z,6.28
2019-01-14T02:04:29.407Z,6.25
2019-01-14T02:05:29.299Z,6.30
2019-01-14T02:06:29.281Z,6.22
2019-01-14T02:07:29.278Z,6.25
2019-01-14T02:08:29.290Z,6.27
2019-01-14T02:09:29.253Z,6.21
2019-01-14T02:10:29.219Z,6.25
2019-01-14T02:11:29.389Z,6.37
2019-01-14T02:12:29.240Z,6.33
2019-01-14T02:13:29.228Z,6.28
2019-01-14T02:14:29.237Z,6.27
2019-01-14T02:15:29.179Z,6.31
2019-01-14T02:16:29.201Z,6.31
2019-01-14T02:17:29.168Z,6.27
2019-01-14T02:18:29.261Z,6.31
2019-01-14T02:19:29.164Z,6.33
2019-01-14T02:20:29.113Z,6.34
2019-01-14T02:21:29.133Z,6.34
2019-01-14T02:22:29.106Z,6.46
2019-01-14T02:23:29.091Z,6.34
2019-01-14T02:24:29.071Z,6.31
2019-01-14T02:25:29.078Z,6.38
2019-01-14T02:26:29.057Z,6.36
2019-01-14T02:27:29.097Z,6.38
2019-01-14T02:28:29.052Z,6.37
2019-01-14T02:29:29.070Z,6.38
2019-01-14T02:30:29.000Z,6.46
2019-01-14T02:31:29.009Z,6.51
2019-01-14T02:32:28.992Z,6.49
2019-01-14T02:33:29.003Z,6.48
2019-01-14T02:34:28.971Z,6.46
2019-01-14T02:35:28.969Z,6.51
2019-01-14T02:36:29.091Z,6.37
2019-01-14T02:37:28.947Z,6.43
2019-01-14T02:38:28.990Z,6.51
2019-01-14T02:39:28.959Z,6.55
2019-01-14T02:40:28.916Z,6.52
2019-01-14T02:41:28.907Z,6.43
2019-01-14T02:42:28.886Z,6.55
2019-01-14T02:43:28.888Z,6.48
2019-01-14T02:44:28.887Z,6.51
2019-01-14T02:45:28.873Z,6.59
2019-01-14T02:46:28.845Z,6.43
2019-01-14T02:47:28.839Z,6.51
2019-01-14T02:48:28.825Z,6.55
2019-01-14T02:49:28.870Z,6.43
2019-01-14T02:50:28.819Z,6.48
2019-01-14T02:51:28.821Z,6.43
2019-01-14T02:52:28.775Z,6.56
2019-01-14T02:53:28.761Z,6.49
2019-01-14T02:54:28.767Z,6.44
2019-01-14T02:55:28.757Z,6.54
2019-01-14T02:56:28.757Z,6.46
2019-01-14T02:57:28.718Z,6.38
2019-01-14T02:58:28.717Z,6.36
2019-01-14T02:59:28.707Z,6.30
2019-01-14T03:00:28.727Z,6.38
2019-01-14T03:01:28.771Z,6.33
2019-01-14T03:02:28.669Z,6.37
2019-01-14T03:03:28.653Z,6.27
2019-01-14T03:04:28.635Z,6.25
2019-01-14T03:05:28.624Z,6.27
2019-01-14T03:06:28.632Z,6.19
2019-01-14T03:07:28.627Z,6.15
2019-01-14T03:08:28.629Z,6.17
2019-01-14T03:09:28.599Z,6.03
2019-01-14T03:10:28.642Z,6.08
2019-01-14T03:11:28.565Z,6.06
2019-01-14T03:12:28.565Z,6.08
2019-01-14T03:13:28.557Z,6.06
2019-01-14T03:14:28.570Z,6.08
2019-01-14T03:15:28.545Z,5.99
2019-01-14T03:16:28.504Z,6.04
2019-01-14T03:17:28.511Z,6.06
2019-01-14T03:18:28.501Z,6.08
2019-01-14T03:19:28.488Z,6.01
2019-01-14T03:20:28.508Z,6.06
2019-01-14T03:21:28.465Z,6.06
2019-01-14T03:22:28.454Z,5.99
2019-01-14T03:23:28.452Z,6.06
2019-01-14T03:24:28.430Z,6.03
2019-01-14T03:25:28.455Z,6.11
2019-01-14T03:26:28.431Z,6.09
2019-01-14T03:27:28.503Z,6.03
2019-01-14T03:28:28.375Z,6.04
2019-01-14T03:29:28.373Z,6.09
2019-01-14T03:30:28.387Z,6.11
2019-01-14T03:31:28.373Z,6.18
2019-01-14T03:32:28.409Z,6.18
2019-01-14T03:33:28.330Z,6.08
2019-01-14T03:34:28.315Z,6.17
2019-01-14T03:35:28.313Z,6.17
2019-01-14T03:36:28.321Z,6.30
2019-01-14T03:37:28.283Z,6.18
2019-01-14T03:38:28.285Z,6.28
2019-01-14T03:39:28.271Z,6.30
2019-01-14T03:40:28.291Z,6.30
2019-01-14T03:41:28.313Z,6.30
2019-01-14T03:42:28.244Z,6.33
2019-01-14T03:43:28.224Z,6.33
2019-01-14T03:44:28.249Z,6.33
2019-01-14T03:45:28.199Z,6.34
2019-01-14T03:46:28.180Z,6.22
2019-01-14T03:47:28.195Z,6.33
2019-01-14T03:48:28.176Z,6.33
2019-01-14T03:49:28.172Z,6.34
2019-01-14T03:50:28.181Z,6.41
2019-01-14T03:51:28.141Z,6.36
2019-01-14T03:52:28.198Z,6.36
2019-01-14T03:53:28.115Z,6.37
2019-01-14T03:54:28.093Z,6.36
2019-01-14T03:55:28.116Z,6.37
2019-01-14T03:56:28.066Z,6.33
2019-01-14T03:57:28.076Z,6.41
2019-01-14T03:58:28.074Z,6.30
2019-01-14T03:59:28.088Z,6.38
2019-01-14T04:00:28.048Z,6.36
2019-01-14T04:01:28.044Z,6.41
2019-01-14T04:02:28.013Z,6.38
2019-01-14T04:03:28.046Z,6.30
2019-01-14T04:04:27.996Z,6.41
2019-01-14T04:05:27.983Z,6.31
2019-01-14T04:06:27.986Z,6.36
2019-01-14T04:07:27.966Z,6.41
2019-01-14T04:08:27.943Z,6.38
2019-01-14T04:09:27.999Z,6.34
2019-01-14T04:10:27.980Z,6.38
2019-01-14T04:11:27.919Z,6.34
2019-01-14T04:12:27.915Z,6.37
2019-01-14T04:13:27.974Z,6.34
2019-01-14T04:14:27.915Z,6.28
2019-01-14T04:15:27.862Z,6.31
2019-01-14T04:16:27.892Z,6.30
2019-01-14T04:17:27.879Z,6.28
2019-01-14T04:18:27.957Z,6.34
2019-01-14T04:19:27.952Z,6.28
2019-01-14T04:20:27.838Z,6.22
2019-01-14T04:21:27.800Z,6.28
2019-01-14T04:22:27.804Z,6.31
2019-01-14T04:23:27.803Z,6.31
2019-01-14T04:24:27.777Z,6.31
2019-01-14T04:25:27.789Z,6.27
2019-01-14T04:26:27.806Z,6.19
2019-01-14T04:27:27.754Z,6.31
2019-01-14T04:28:27.740Z,6.27
2019-01-14T04:29:27.733Z,6.30
2019-01-14T04:30:27.719Z,6.27
2019-01-14T04:31:27.751Z,6.27
2019-01-14T04:32:27.681Z,6.27
2019-01-14T04:33:27.690Z,6.30
2019-01-14T04:34:27.663Z,6.28
2019-01-14T04:35:27.771Z,6.30
2019-01-14T04:36:27.657Z,6.30
2019-01-14T04:37:27.665Z,6.25
2019-01-14T04:38:27.635Z,6.19
2019-01-14T04:39:27.667Z,6.27
2019-01-14T04:40:27.602Z,6.22
2019-01-14T04:41:27.612Z,6.22
2019-01-14T04:42:27.587Z,6.25
2019-01-14T04:43:27.604Z,6.22
2019-01-14T04:44:27.557Z,6.14
2019-01-14T04:45:27.560Z,6.14
2019-01-14T04:46:27.528Z,6.08
2019-01-14T04:47:27.547Z,6.06
2019-01-14T04:48:27.554Z,6.06
2019-01-14T04:49:27.527Z,6.04
2019-01-14T04:50:27.488Z,6.04
2019-01-14T04:51:27.590Z,6.09
2019-01-14T04:52:27.498Z,6.12
2019-01-14T04:53:27.487Z,6.11
2019-01-14T04:54:27.488Z,6.03
2019-01-14T04:55:27.455Z,6.06
2019-01-14T04:56:27.449Z,5.99
2019-01-14T04:57:27.436Z,5.99
2019-01-14T04:58:27.432Z,5.99
2019-01-14T04:59:27.401Z,5.96
2019-01-14T05:00:27.389Z,5.91
2019-01-14T05:01:27.436Z,5.94
2019-01-14T05:02:27.441Z,5.86
2019-01-14T05:03:27.361Z,5.93
2019-01-14T05:04:27.385Z,5.85
2019-01-14T05:05:27.329Z,5.91
2019-01-14T05:06:27.328Z,5.89
2019-01-14T05:07:29.766Z,5.91
2019-01-14T05:08:27.304Z,5.93
2019-01-14T05:09:27.440Z,5.85
2019-01-14T05:10:27.285Z,5.79
2019-01-14T05:11:27.272Z,5.81
2019-01-14T05:12:27.242Z,5.90
2019-01-14T05:13:27.286Z,5.83
2019-01-14T05:14:27.270Z,5.86
2019-01-14T05:15:27.246Z,5.86
2019-01-14T05:16:27.215Z,5.81
2019-01-14T05:17:27.216Z,5.82
2019-01-14T05:18:27.221Z,5.85
2019-01-14T05:19:27.192Z,5.85
2019-01-14T05:20:27.166Z,5.83
2019-01-14T05:21:27.167Z,5.83
2019-01-14T05:22:27.229Z,5.81
2019-01-14T05:23:27.133Z,5.76
2019-01-14T05:24:27.127Z,5.82
2019-01-14T05:25:27.134Z,5.76
2019-01-14T05:26:27.122Z,5.76
2019-01-14T05:27:27.120Z,5.83
2019-01-14T05:28:27.089Z,5.79
2019-01-14T05:29:27.126Z,5.76
2019-01-14T05:30:27.051Z,5.79
2019-01-14T05:31:27.052Z,5.79
2019-01-14T05:32:27.047Z,5.75
2019-01-14T05:33:27.067Z,5.85
2019-01-14T05:34:27.036Z,5.75
2019-01-14T05:35:27.009Z,5.82
2019-01-14T05:36:27.082Z,5.85
2019-01-14T05:37:26.984Z,5.85
2019-01-14T05:38:26.996Z,5.83
2019-01-14T05:39:26.961Z,5.83
2019-01-14T05:40:26.960Z,5.76
2019-01-14T05:41:26.934Z,5.76
2019-01-14T05:42:26.968Z,5.78
2019-01-14T05:43:26.936Z,5.85
2019-01-14T05:44:26.912Z,5.74
2019-01-14T05:45:26.894Z,5.82
2019-01-14T05:46:26.904Z,5.75
2019-01-14T05:47:26.885Z,5.79
2019-01-14T05:48:26.870Z,5.81
2019-01-14T05:49:26.878Z,5.79
2019-01-14T05:50:26.832Z,5.79
2019-01-14T05:51:26.862Z,5.76
2019-01-14T05:52:26.843Z,5.79
2019-01-14T05:53:26.814Z,5.72
2019-01-14T05:54:26.834Z,5.74
2019-01-14T05:55:26.788Z,5.72
2019-01-14T05:56:26.791Z,5.76
2019-01-14T05:57:26.800Z,5.79
2019-01-14T05:58:26.805Z,5.65
2019-01-14T05:59:26.751Z,5.76
2019-01-14T06:00:26.751Z,5.76
2019-01-14T06:01:26.734Z,5.71
2019-01-14T06:02:26.796Z,5.75
2019-01-14T06:03:26.707Z,5.68
2019-01-14T06:04:26.710Z,5.72
2019-01-14T06:05:26.680Z,5.67
2019-01-14T06:06:26.692Z,5.65
2019-01-14T06:07:26.661Z,5.65
2019-01-14T06:08:26.669Z,5.75
2019-01-14T06:09:26.628Z,5.67
2019-01-14T06:10:26.632Z,5.76
2019-01-14T06:11:26.695Z,5.72
2019-01-14T06:12:26.615Z,5.64
2019-01-14T06:13:26.593Z,5.74
2019-01-14T06:14:26.580Z,5.74
2019-01-14T06:15:26.558Z,5.82
2019-01-14T06:16:26.647Z,5.83
2019-01-14T06:17:26.560Z,5.78
2019-01-14T06:18:26.590Z,5.82
2019-01-14T06:19:26.556Z,5.90
2019-01-14T06:20:26.560Z,5.85
2019-01-14T06:21:26.524Z,5.82
2019-01-14T06:22:26.498Z,5.85
2019-01-14T06:23:26.486Z,5.83
2019-01-14T06:24:26.486Z,5.90
2019-01-14T06:25:26.461Z,5.83
2019-01-14T06:26:26.469Z,5.91
2019-01-14T06:27:26.431Z,5.85
2019-01-14T06:28:26.424Z,5.85
2019-01-14T06:29:26.438Z,5.85
2019-01-14T06:30:26.414Z,5.91
2019-01-14T06:31:26.460Z,5.83
2019-01-14T06:32:26.412Z,5.85
2019-01-14T06:33:26.411Z,5.86
2019-01-14T06:34:26.381Z,5.76
2019-01-14T06:35:26.364Z,5.82
2019-01-14T06:36:26.338Z,5.79
2019-01-14T06:37:26.334Z,5.90
2019-01-14T06:38:26.329Z,5.82
2019-01-14T06:39:26.315Z,5.94
2019-01-14T06:40:26.393Z,5.91
2019-01-14T06:41:26.296Z,5.93
2019-01-14T06:42:26.275Z,5.99
2019-01-14T06:43:26.276Z,5.89
2019-01-14T06:44:26.277Z,5.99
2019-01-14T06:45:26.283Z,5.93
2019-01-14T06:46:26.229Z,5.97
2019-01-14T06:47:26.236Z,5.94
2019-01-14T06:48:26.223Z,5.91
2019-01-14T06:49:26.198Z,5.93
2019-01-14T06:50:26.224Z,5.94
2019-01-14T06:51:26.225Z,5.90
2019-01-14T06:52:26.168Z,5.96
2019-01-14T06:53:26.253Z,5.89
2019-01-14T06:54:26.271Z,5.90
2019-01-14T06:55:26.133Z,5.90
2019-01-14T06:56:26.173Z,5.86
2019-01-14T06:57:26.133Z,5.99
2019-01-14T06:58:26.108Z,5.93
2019-01-14T06:59:26.110Z,5.97
2019-01-14T07:00:26.111Z,5.90
2019-01-14T07:01:26.065Z,5.99
2019-01-14T07:02:26.085Z,5.93
2019-01-14T07:03:26.070Z,5.85
2019-01-14T07:04:26.053Z,5.93
2019-01-14T07:05:26.090Z,5.89
2019-01-14T07:06:26.044Z,5.90
2019-01-14T07:07:26.003Z,5.97
2019-01-14T07:08:26.011Z,5.97
2019-01-14T07:09:25.984Z,5.94
2019-01-14T07:10:25.981Z,5.93
2019-01-14T07:11:25.993Z,5.89
2019-01-14T07:12:25.955Z,5.82
2019-01-14T07:13:25.947Z,5.83
2019-01-14T07:14:25.930Z,5.82
2019-01-14T07:15:25.930Z,5.85
2019-01-14T07:16:25.904Z,5.81
2019-01-14T07:17:25.902Z,5.78
2019-01-14T07:18:25.901Z,5.82
2019-01-14T07:19:25.972Z,5.81
2019-01-14T07:20:25.895Z,5.86
2019-01-14T07:21:25.872Z,5.83
2019-01-14T07:22:25.883Z,5.82
2019-01-14T07:23:25.891Z,5.82
2019-01-14T07:24:25.877Z,5.65
2019-01-14T07:25:25.899Z,5.78
2019-01-14T07:26:25.790Z,5.75
2019-01-14T07:27:25.791Z,5.72
2019-01-14T07:28:25.777Z,5.71
2019-01-14T07:29:25.816Z,5.64
2019-01-14T07:30:25.752Z,5.74
2019-01-14T07:31:25.755Z,5.64
2019-01-14T07:32:25.765Z,5.75
2019-01-14T07:33:25.727Z,5.71
2019-01-14T07:34:25.816Z,5.75
2019-01-14T07:35:25.784Z,5.75
2019-01-14T07:36:25.705Z,5.74
2019-01-14T07:37:25.689Z,5.65
2019-01-14T07:38:25.683Z,5.68
2019-01-14T07:39:25.672Z,5.76
2019-01-14T07:40:25.641Z,5.68
2019-01-14T07:41:25.655Z,5.67
2019-01-14T07:42:25.677Z,5.74
2019-01-14T07:43:25.660Z,5.68
2019-01-14T07:44:25.615Z,5.74
2019-01-14T07:45:25.645Z,5.71
2019-01-14T07:46:25.584Z,5.75
2019-01-14T07:47:25.568Z,5.76
2019-01-14T07:48:25.556Z,5.76
2019-01-14T07:49:25.557Z,5.75
2019-01-14T07:50:25.651Z,5.78
2019-01-14T07:51:25.520Z,5.79
2019-01-14T07:52:25.540Z,5.82
2019-01-14T07:53:25.500Z,5.85
2019-01-14T07:54:25.531Z,5.79
2019-01-14T07:55:25.491Z,5.76
2019-01-14T07:56:25.501Z,5.81
2019-01-14T07:57:25.469Z,5.89
2019-01-14T07:58:25.450Z,5.78
2019-01-14T07:59:25.464Z,5.85
2019-01-14T08:00:25.429Z,5.86
2019-01-14T08:01:25.455Z,5.81
2019-01-14T08:02:25.430Z,5.83
2019-01-14T08:03:25.389Z,5.85
2019-01-14T08:04:25.413Z,5.89
2019-01-14T08:05:25.422Z,5.81
2019-01-14T08:06:25.425Z,5.82
2019-01-14T08:07:25.470Z,5.81
2019-01-14T08:08:25.357Z,5.83
2019-01-14T08:09:25.351Z,5.79
2019-01-14T08:10:25.318Z,5.89
2019-01-14T08:11:25.316Z,5.74
2019-01-14T08:12:25.322Z,5.78
2019-01-14T08:13:25.376Z,5.86
2019-01-14T08:14:25.294Z,5.79
2019-01-14T08:15:25.265Z,5.85
2019-01-14T08:16:25.289Z,5.78
2019-01-14T08:17:25.246Z,5.74
2019-01-14T08:18:25.293Z,5.78
2019-01-14T08:19:25.247Z,5.76
2019-01-14T08:20:25.228Z,5.74
2019-01-14T08:21:25.207Z,5.74
2019-01-14T08:22:25.337Z,5.79
2019-01-14T08:23:25.178Z,5.81
2019-01-14T08:24:25.186Z,5.82
2019-01-14T08:25:25.178Z,5.74
2019-01-14T08:26:25.176Z,5.78
2019-01-14T08:27:25.142Z,5.78
2019-01-14T08:28:25.154Z,5.71
2019-01-14T08:29:25.158Z,5.74
2019-01-14T08:30:25.111Z,5.81
2019-01-14T08:31:25.100Z,5.68
2019-01-14T08:32:25.095Z,5.79
2019-01-14T08:33:25.149Z,5.79
2019-01-14T08:34:25.056Z,5.75
2019-01-14T08:35:25.072Z,5.64
2019-01-14T08:36:25.066Z,5.81
2019-01-14T08:37:25.031Z,5.72
2019-01-14T08:38:25.048Z,5.68
2019-01-14T08:39:25.043Z,5.67
2019-01-14T08:40:25.001Z,5.71
2019-01-14T08:41:25.002Z,5.72
2019-01-14T08:42:24.991Z,5.64
2019-01-14T08:43:25.012Z,5.74
2019-01-14T08:44:24.955Z,5.67
2019-01-14T08:45:25.052Z,5.75
2019-01-14T08:46:24.940Z,5.74
2019-01-14T08:47:24.921Z,5.68
2019-01-14T08:48:24.925Z,5.74
2019-01-14T08:49:24.976Z,5.67
2019-01-14T08:50:24.909Z,5.71
2019-01-14T08:51:24.876Z,5.64
2019-01-14T08:52:24.922Z,5.65
2019-01-14T08:53:24.871Z,5.64
2019-01-14T08:54:24.888Z,5.67
2019-01-14T08:55:24.837Z,5.71
2019-01-14T08:56:24.845Z,5.54
2019-01-14T08:57:24.903Z,5.65
2019-01-14T08:58:24.804Z,5.72
2019-01-14T08:59:24.796Z,5.74
2019-01-14T09:00:24.841Z,5.71
2019-01-14T09:01:24.826Z,5.67
2019-01-14T09:02:24.774Z,5.68
2019-01-14T09:03:24.758Z,5.68
2019-01-14T09:04:24.755Z,5.63
2019-01-14T09:05:24.750Z,5.61
2019-01-14T09:06:24.712Z,5.61
2019-01-14T09:07:24.699Z,5.60
2019-01-14T09:08:28.698Z,5.61
2019-01-14T09:09:24.703Z,5.60
2019-01-14T09:10:24.707Z,5.51
2019-01-14T09:11:24.667Z,5.58
2019-01-14T09:12:24.693Z,5.63
2019-01-14T09:13:24.675Z,5.56
2019-01-14T09:14:24.628Z,5.58
2019-01-14T09:15:24.677Z,5.38
2019-01-14T09:16:24.612Z,5.30
2019-01-14T09:17:24.600Z,5.33
2019-01-14T09:18:24.618Z,5.31
2019-01-14T09:19:24.572Z,5.30
2019-01-14T09:20:24.581Z,5.12
2019-01-14T09:21:24.616Z,5.09
2019-01-14T09:22:24.542Z,5.07
2019-01-14T09:23:24.547Z,5.04
2019-01-14T09:24:24.523Z,4.96
2019-01-14T09:25:24.610Z,4.89
2019-01-14T09:26:24.499Z,4.80
2019-01-14T09:27:24.487Z,4.73
2019-01-14T09:28:24.477Z,4.70
2019-01-14T09:29:24.457Z,4.66
2019-01-14T09:30:24.457Z,4.63
2019-01-14T09:31:24.476Z,4.62
2019-01-14T09:32:24.440Z,4.48
2019-01-14T09:33:24.427Z,4.41
2019-01-14T09:34:24.410Z,4.40
2019-01-14T09:35:24.405Z,4.33
2019-01-14T09:36:24.478Z,4.24
2019-01-14T09:37:24.393Z,4.36
2019-01-14T09:38:24.386Z,4.18
2019-01-14T09:39:24.371Z,4.14
2019-01-14T09:40:24.403Z,4.20
2019-01-14T09:41:24.353Z,4.02
2019-01-14T09:42:27.985Z,4.08
2019-01-14T09:43:24.340Z,4.05
2019-01-14T09:44:24.309Z,3.98
2019-01-14T09:45:24.296Z,4.05
2019-01-14T09:46:24.325Z,4.14
2019-01-14T09:47:24.365Z,4.12
2019-01-14T09:48:24.291Z,4.15
2019-01-14T09:49:24.241Z,4.12
2019-01-14T09:50:24.288Z,4.15
2019-01-14T09:51:24.273Z,4.08
2019-01-14T09:52:24.317Z,4.16
2019-01-14T09:53:24.205Z,4.20
2019-01-14T09:54:24.228Z,4.23
2019-01-14T09:55:24.219Z,4.20
2019-01-14T09:56:24.207Z,4.23
2019-01-14T09:57:24.191Z,4.26
2019-01-14T09:58:24.211Z,4.36
2019-01-14T09:59:24.142Z,4.40
2019-01-14T10:00:24.132Z,4.32
2019-01-14T10:01:24.138Z,4.41
2019-01-14T10:02:24.132Z,4.29
2019-01-14T10:03:24.096Z,4.33
2019-01-14T10:04:24.117Z,4.42
2019-01-14T10:05:24.099Z,4.42
2019-01-14T10:06:24.085Z,4.51
2019-01-14T10:07:24.078Z,4.41
2019-01-14T10:08:24.048Z,4.44
2019-01-14T10:09:24.052Z,4.40
2019-01-14T10:10:24.013Z,4.47
2019-01-14T10:11:24.061Z,4.50
2019-01-14T10:12:24.031Z,4.45
2019-01-14T10:13:23.987Z,4.45
2019-01-14T10:14:23.992Z,4.44
2019-01-14T10:15:23.972Z,4.41
2019-01-14T10:16:23.955Z,4.54
2019-01-14T10:17:23.982Z,4.55
2019-01-14T10:18:23.932Z,4.60
2019-01-14T10:19:23.969Z,4.69
2019-01-14T10:20:23.918Z,4.63
2019-01-14T10:21:23.907Z,4.80
2019-01-14T10:22:23.923Z,4.86
2019-01-14T10:23:23.954Z,4.97
2019-01-14T10:24:23.885Z,5.12
2019-01-14T10:25:23.854Z,5.09
2019-01-14T10:26:23.886Z,5.17
2019-01-14T10:27:23.868Z,5.10
2019-01-14T10:28:23.826Z,5.09
2019-01-14T10:29:23.891Z,5.10
2019-01-14T10:30:23.815Z,5.06
2019-01-14T10:31:23.798Z,5.18
2019-01-14T10:32:23.801Z,5.15
2019-01-14T10:33:23.874Z,5.30
2019-01-14T10:34:23.883Z,5.28
2019-01-14T10:35:23.767Z,5.31
2019-01-14T10:36:23.765Z,5.21
2019-01-14T10:37:23.736Z,5.21
2019-01-14T10:38:23.745Z,5.22
2019-01-14T10:39:23.708Z,5.27
2019-01-14T10:40:23.708Z,5.25
2019-01-14T10:41:23.716Z,5.28
2019-01-14T10:42:23.670Z,5.25
2019-01-14T10:43:23.664Z,5.21
2019-01-14T10:44:23.670Z,5.33
2019-01-14T10:45:23.640Z,5.42
2019-01-14T10:46:23.642Z,5.46
2019-01-14T10:47:23.660Z,5.46
2019-01-14T10:48:23.611Z,5.65
2019-01-14T10:49:23.602Z,5.51
2019-01-14T10:50:23.598Z,5.64
2019-01-14T10:51:23.576Z,5.63
2019-01-14T10:52:23.563Z,5.64
2019-01-14T10:53:23.570Z,5.67
2019-01-14T10:54:23.548Z,5.56
2019-01-14T10:55:23.545Z,5.63
2019-01-14T10:56:23.520Z,5.72
2019-01-14T10:57:23.533Z,5.82
2019-01-14T10:58:23.507Z,5.76
2019-01-14T10:59:23.514Z,5.74
2019-01-14T11:00:23.500Z,5.65
2019-01-14T11:01:23.476Z,5.71
2019-01-14T11:02:23.457Z,5.60
2019-01-14T11:03:23.451Z,5.64
2019-01-14T11:04:23.430Z,5.58
2019-01-14T11:05:23.423Z,5.60
2019-01-14T11:06:23.430Z,5.64
2019-01-14T11:07:23.406Z,5.74
2019-01-14T11:08:23.410Z,5.74
2019-01-14T11:09:23.386Z,5.82
2019-01-14T11:10:23.403Z,5.76
2019-01-14T11:11:23.366Z,5.89
2019-01-14T11:12:23.364Z,5.94
2019-01-14T11:13:23.338Z,5.90
2019-01-14T11:14:23.324Z,5.99
2019-01-14T11:15:23.322Z,5.89
2019-01-14T11:16:23.308Z,5.82
2019-01-14T11:17:23.303Z,5.82
2019-01-14T11:18:23.286Z,5.83
2019-01-14T11:19:23.287Z,5.83
2019-01-14T11:20:23.288Z,5.83
2019-01-14T11:21:23.274Z,5.86
2019-01-14T11:22:23.254Z,5.90
2019-01-14T11:23:23.228Z,5.93
2019-01-14T11:24:23.242Z,5.94
2019-01-14T11:25:23.217Z,5.89
2019-01-14T11:26:23.214Z,5.85
2019-01-14T11:27:23.207Z,5.91
2019-01-14T11:28:23.197Z,5.96
2019-01-14T11:29:23.262Z,5.83
2019-01-14T11:30:23.258Z,5.85
2019-01-14T11:31:23.217Z,5.90
2019-01-14T11:32:23.145Z,5.74
2019-01-14T11:33:23.143Z,5.76
2019-01-14T11:34:23.180Z,5.72
2019-01-14T11:35:23.131Z,5.65
2019-01-14T11:36:23.085Z,5.68
2019-01-14T11:37:23.157Z,5.64
2019-01-14T11:38:23.101Z,5.61
2019-01-14T11:39:23.073Z,5.64
2019-01-14T11:40:23.066Z,5.67
2019-01-14T11:41:23.068Z,5.64
2019-01-14T11:42:23.024Z,5.61
2019-01-14T11:43:23.068Z,5.67
2019-01-14T11:44:23.014Z,5.71
2019-01-14T11:45:22.992Z,5.75
2019-01-14T11:46:22.979Z,5.72
2019-01-14T11:47:22.994Z,5.76
2019-01-14T11:48:22.952Z,5.75
2019-01-14T11:49:22.981Z,5.72
2019-01-14T11:50:22.944Z,5.79
2019-01-14T11:51:22.930Z,5.71
2019-01-14T11:52:22.932Z,5.65
2019-01-14T11:53:22.949Z,5.72
2019-01-14T11:54:22.894Z,5.81
2019-01-14T11:55:22.879Z,5.74
2019-01-14T11:56:22.915Z,5.67
2019-01-14T11:57:22.889Z,5.68
2019-01-14T11:58:22.879Z,5.71
2019-01-14T11:59:22.851Z,5.63
2019-01-14T12:00:22.835Z,5.71
2019-01-14T12:01:22.840Z,5.65
2019-01-14T12:02:22.845Z,5.65
2019-01-14T12:03:22.824Z,5.54
2019-01-14T12:04:22.801Z,5.24
2019-01-14T12:05:22.787Z,4.85
2019-01-14T12:06:22.788Z,4.67
2019-01-14T12:07:22.764Z,4.37
2019-01-14T12:08:22.818Z,4.26
2019-01-14T12:09:22.769Z,3.98
2019-01-14T12:10:22.736Z,3.73
2019-01-14T12:11:22.725Z,3.62
2019-01-14T12:12:22.736Z,3.51
2019-01-14T12:13:22.723Z,3.47
2019-01-14T12:14:22.675Z,3.52
2019-01-14T12:15:22.676Z,3.48
2019-01-14T12:16:22.664Z,3.33
2019-01-14T12:17:22.665Z,3.33
2019-01-14T12:18:22.696Z,3.33
2019-01-14T12:19:22.670Z,3.48
2019-01-14T12:20:22.618Z,3.57
2019-01-14T12:21:22.610Z,3.66
2019-01-14T12:22:22.722Z,3.68
2019-01-14T12:23:22.631Z,3.72
2019-01-14T12:24:22.604Z,3.76
2019-01-14T12:25:22.617Z,3.78
2019-01-14T12:26:22.610Z,3.83
2019-01-14T12:27:22.547Z,3.91
2019-01-14T12:28:22.593Z,3.93
2019-01-14T12:29:22.559Z,3.97
2019-01-14T12:30:22.527Z,4.04
2019-01-14T12:31:22.510Z,4.20
2019-01-14T12:32:22.510Z,4.16
2019-01-14T12:33:22.483Z,4.16
2019-01-14T12:34:22.482Z,4.22
2019-01-14T12:35:22.453Z,4.08
2019-01-14T12:36:22.475Z,4.20
2019-01-14T12:37:22.481Z,4.27
2019-01-14T12:38:22.473Z,4.29
2019-01-14T12:39:22.406Z,4.18
2019-01-14T12:40:25.005Z,4.27
2019-01-14T12:41:22.415Z,4.24
2019-01-14T12:42:22.425Z,4.22
2019-01-14T12:43:22.369Z,4.27
2019-01-14T12:44:22.353Z,4.27
2019-01-14T12:45:22.343Z,4.36
2019-01-14T12:46:22.336Z,4.37
2019-01-14T12:47:22.363Z,4.42
2019-01-14T12:48:22.645Z,4.45
2019-01-14T12:49:22.336Z,4.36
2019-01-14T12:50:22.280Z,4.44
2019-01-14T12:51:22.289Z,4.29
2019-01-14T12:52:22.289Z,4.40
2019-01-14T12:53:22.272Z,4.40
2019-01-14T12:54:22.333Z,4.45
2019-01-14T12:55:22.264Z,4.36
2019-01-14T12:56:22.248Z,4.48
2019-01-14T12:57:22.215Z,4.52
2019-01-14T12:58:22.212Z,4.65
2019-01-14T12:59:22.222Z,4.67
2019-01-14T13:00:22.174Z,4.65
2019-01-14T13:01:22.164Z,4.69
2019-01-14T13:02:22.182Z,4.73
2019-01-14T13:03:22.179Z,4.73
2019-01-14T13:04:22.149Z,4.72
2019-01-14T13:05:22.142Z,4.73
2019-01-14T13:06:22.152Z,4.75
2019-01-14T13:07:22.103Z,4.69
2019-01-14T13:08:22.131Z,4.73
2019-01-14T13:09:26.693Z,4.63
2019-01-14T13:10:22.090Z,4.67
2019-01-14T13:11:23.376Z,4.66
2019-01-14T13:12:22.064Z,4.63
2019-01-14T13:13:22.119Z,4.65
2019-01-14T13:14:22.061Z,4.58
2019-01-14T13:15:22.058Z,4.65
2019-01-14T13:16:22.010Z,4.66
2019-01-14T13:17:22.003Z,4.63
2019-01-14T13:18:22.018Z,4.69